Highland-University Park's Hourly Summary for Friday, July 6, 2018
Hour Temp
(f)
RH
(%)
Solar Rad.
(MJ/m2)
Rainfall
(in)
Wind
(mph)
7/6/2018 12:00 AM 84 61 0 0 1.88
7/6/2018 1:00 AM 83 63 0 0 1.27
7/6/2018 2:00 AM 82 66 0 0 0.17
7/6/2018 3:00 AM 80 71 0 0 0.09
7/6/2018 4:00 AM 79 72 0 0 0.01
7/6/2018 5:00 AM 78 77 0 0 0
7/6/2018 6:00 AM 77 81 0 0 0
7/6/2018 7:00 AM 78 79 0.02 0 0.11
7/6/2018 8:00 AM 80 75 0.12 0 0.33
7/6/2018 9:00 AM 82 68 0.26 0 1.1
7/6/2018 10:00 AM 86 59 1.66 0 1.6
7/6/2018 11:00 AM 89 52 2.15 0 2.36
7/6/2018 12:00 PM 92 46 2.52 0 2.85
7/6/2018 1:00 PM 94 42 3.06 0 2.84
7/6/2018 2:00 PM 96 37 2.49 0 2.11
7/6/2018 3:00 PM 90 43 1.2 0 1.01
7/6/2018 4:00 PM 86 44 0.51 0 2.94
7/6/2018 5:00 PM 79 70 0.31 0 0.99
7/6/2018 6:00 PM 81 68 0.53 0 0.94
7/6/2018 7:00 PM 84 62 0.63 0 1.15
7/6/2018 8:00 PM 85 60 0.37 0 0.35
7/6/2018 9:00 PM 82 62 0.03 0 0.44
7/6/2018 10:00 PM 81 64 0 0 0.5
7/6/2018 11:00 PM 81 70 0 0 0.51
Data Summary 83 62 15.86 0.00 1.06